Time;durP1;ratioP1;P1;durP2;ratioP2;P2;SDS_P1;SDS_P2;PMS_P1;PMS_P2;Temp;Humidity;BMP_temperature;BMP_pressure;BME280_temperature;BME280_humidity;BME280_pressure;Samples;Min_cycle;Max_cycle;Signal;HPM_P1;HPM_P2
2022/02/19 00:01:45;;;;;;;38.35;26.00;;;7.60;98.00;;;;;;5055029;28;20071;-50
2022/02/19 00:04:10;;;;;;;37.78;22.92;;;7.50;98.30;;;;;;5071873;28;20041;-51
2022/02/19 00:06:38;;;;;;;30.67;21.27;;;7.40;98.40;;;;;;5056916;28;20096;-48
2022/02/19 00:09:04;;;;;;;27.45;18.42;;;7.30;98.60;;;;;;5056960;28;20029;-51
2022/02/19 00:11:30;;;;;;;20.35;12.05;;;7.50;98.50;;;;;;5056721;28;20029;-50
2022/02/19 00:13:57;;;;;;;16.60;8.77;;;7.40;98.60;;;;;;5056745;28;20112;-51
2022/02/19 00:16:22;;;;;;;17.88;9.18;;;7.50;98.30;;;;;;5055336;28;20041;-49
2022/02/19 00:18:49;;;;;;;13.15;7.43;;;7.60;98.10;;;;;;5056758;28;20047;-51
2022/02/19 00:21:15;;;;;;;11.48;6.65;;;7.60;98.00;;;;;;5056639;28;20108;-51
2022/02/19 00:23:41;;;;;;;11.07;6.93;;;7.70;97.80;;;;;;5056325;28;20167;-49
2022/02/19 00:26:07;;;;;;;19.40;9.70;;;7.80;97.50;;;;;;5056115;28;20041;-51
2022/02/19 00:28:33;;;;;;;51.72;29.35;;;8.00;97.40;;;;;;5071493;28;20037;-50
2022/02/19 00:30:59;;;;;;;65.63;33.65;;;8.30;97.40;;;;;;5056269;28;20384;-51
2022/02/19 00:33:26;;;;;;;68.25;36.28;;;8.50;97.10;;;;;;5056195;28;20040;-51
2022/02/19 00:35:52;;;;;;;46.88;28.98;;;8.60;96.60;;;;;;5061396;28;20121;-51
2022/02/19 00:38:18;;;;;;;19.85;10.20;;;8.70;96.40;;;;;;5056519;28;20048;-50
2022/02/19 00:40:44;;;;;;;14.68;8.38;;;8.90;96.00;;;;;;5038010;28;20064;-49
2022/02/19 00:43:10;;;;;;;15.50;8.25;;;9.00;95.30;;;;;;5056069;28;20037;-50
2022/02/19 00:45:36;;;;;;;18.77;9.50;;;9.10;95.40;;;;;;5055902;28;20107;-51
2022/02/19 00:48:02;;;;;;;15.15;8.35;;;9.20;95.10;;;;;;5055900;28;20025;-49
2022/02/19 00:50:28;;;;;;;17.40;10.25;;;9.20;95.00;;;;;;5070791;28;20079;-52
2022/02/19 00:52:56;;;;;;;11.85;6.80;;;9.10;95.10;;;;;;5070764;28;20041;-50
2022/02/19 00:55:23;;;;;;;16.27;9.27;;;9.10;94.80;;;;;;5055725;28;20079;-49
2022/02/19 00:57:49;;;;;;;25.50;13.02;;;9.30;94.80;;;;;;5055709;28;20103;-50
2022/02/19 01:00:15;;;;;;;23.40;12.02;;;9.30;94.90;;;;;;5055698;28;20028;-47
2022/02/19 01:02:41;;;;;;;15.50;8.43;;;9.30;94.90;;;;;;5053778;28;20083;-51
2022/02/19 01:05:08;;;;;;;18.38;9.20;;;9.30;94.60;;;;;;5055636;28;20037;-49
2022/02/19 01:07:35;;;;;;;51.83;27.83;;;9.40;94.50;;;;;;5069920;28;20032;-49
2022/02/19 01:10:01;;;;;;;73.28;35.42;;;9.30;94.60;;;;;;5055575;28;20392;-50
2022/02/19 01:12:27;;;;;;;51.20;26.02;;;9.20;94.80;;;;;;5055397;28;20029;-48
2022/02/19 01:14:53;;;;;;;47.47;25.42;;;9.30;94.90;;;;;;5055434;28;20032;-52
2022/02/19 01:17:19;;;;;;;47.55;23.63;;;9.30;95.20;;;;;;5070365;28;20071;-49
2022/02/19 01:19:44;;;;;;;44.75;22.15;;;9.30;95.00;;;;;;5039789;28;20032;-47
2022/02/19 01:22:10;;;;;;;47.63;23.52;;;9.40;94.90;;;;;;5056529;28;20059;-50
2022/02/19 01:24:36;;;;;;;39.80;21.02;;;9.50;94.90;;;;;;5023435;28;20447;-51
2022/02/19 01:27:02;;;;;;;32.28;17.35;;;9.40;95.20;;;;;;5056484;28;20040;-48
2022/02/19 01:29:29;;;;;;;33.65;16.80;;;9.40;95.20;;;;;;5073242;28;20469;-49
2022/02/19 01:31:55;;;;;;;40.25;19.58;;;9.30;95.20;;;;;;5073155;28;20028;-53
2022/02/19 01:34:23;;;;;;;28.48;14.60;;;9.40;95.30;;;;;;5072870;28;20511;-51
2022/02/19 01:36:50;;;;;;;31.40;15.50;;;9.50;95.00;;;;;;5039484;28;20033;-49
2022/02/19 01:39:16;;;;;;;26.98;13.32;;;9.60;95.20;;;;;;5023158;28;20091;-49
2022/02/19 01:41:42;;;;;;;27.27;15.18;;;9.50;95.10;;;;;;5023110;28;20032;-51
2022/02/19 01:44:10;;;;;;;24.63;12.98;;;9.50;95.20;;;;;;5072949;28;20107;-49
2022/02/19 01:46:36;;;;;;;43.30;26.52;;;9.40;95.30;;;;;;5072610;28;20048;-52
2022/02/19 01:49:03;;;;;;;85.93;47.88;;;9.30;95.00;;;;;;5072663;28;20086;-49
2022/02/19 01:51:31;;;;;;;84.10;46.60;;;9.40;95.10;;;;;;5025419;28;20052;-50
2022/02/19 01:54:05;;;;;;;82.18;45.33;;;9.40;95.00;;;;;;5015027;28;20065;-50
2022/02/19 01:56:33;;;;;;;57.63;34.25;;;9.50;94.90;;;;;;5015135;28;20068;-48
2022/02/19 01:58:59;;;;;;;43.03;24.58;;;9.50;94.80;;;;;;5014910;28;20041;-50
2022/02/19 02:01:24;;;;;;;35.78;21.20;;;9.40;94.50;;;;;;5014871;28;20026;-53
2022/02/19 02:03:50;;;;;;;25.67;14.88;;;9.50;94.40;;;;;;5046036;28;20038;-51
2022/02/19 02:06:17;;;;;;;22.38;13.80;;;9.40;94.30;;;;;;5029609;28;20062;-52
2022/02/19 02:08:44;;;;;;;18.25;10.70;;;9.40;94.00;;;;;;5014798;28;20097;-51
2022/02/19 02:11:10;;;;;;;19.98;12.15;;;9.50;93.60;;;;;;5014816;28;20030;-50
2022/02/19 02:13:36;;;;;;;23.88;13.48;;;9.30;94.10;;;;;;5014660;28;20375;-53
2022/02/19 02:16:02;;;;;;;20.95;10.88;;;9.40;94.30;;;;;;5045859;28;20054;-51
2022/02/19 02:18:27;;;;;;;32.88;18.83;;;9.40;94.20;;;;;;5029601;28;20114;-51
2022/02/19 02:20:53;;;;;;;30.35;18.17;;;9.30;94.60;;;;;;5013784;28;20041;-51
2022/02/19 02:23:21;;;;;;;26.38;18.85;;;9.20;94.60;;;;;;5014601;28;20037;-48
2022/02/19 02:25:47;;;;;;;24.13;16.25;;;8.80;95.20;;;;;;5042709;28;20052;-49
2022/02/19 02:28:13;;;;;;;39.92;24.42;;;8.90;95.20;;;;;;5054086;28;20036;-52
2022/02/19 02:30:40;;;;;;;43.92;26.13;;;8.50;95.30;;;;;;5053920;28;20469;-49
2022/02/19 02:33:07;;;;;;;53.00;30.25;;;8.20;95.70;;;;;;5054244;28;20033;-52
2022/02/19 02:35:34;;;;;;;48.90;25.02;;;8.40;95.80;;;;;;5053889;28;20074;-50
2022/02/19 02:38:00;;;;;;;36.65;22.80;;;8.50;95.80;;;;;;5053878;28;20029;-52
2022/02/19 02:40:26;;;;;;;36.08;21.80;;;8.60;95.90;;;;;;5052583;28;20040;-50
2022/02/19 02:42:52;;;;;;;51.33;29.77;;;8.60;95.90;;;;;;5053760;28;20029;-50
2022/02/19 02:45:17;;;;;;;52.08;28.70;;;8.00;96.20;;;;;;5068755;28;20041;-50
2022/02/19 02:47:43;;;;;;;41.42;24.15;;;8.20;96.30;;;;;;5053788;28;20441;-48
2022/02/19 02:50:10;;;;;;;47.85;26.75;;;8.20;96.60;;;;;;5053762;28;20033;-49
2022/02/19 02:52:37;;;;;;;47.35;27.52;;;8.10;96.60;;;;;;5053630;28;20484;-48
2022/02/19 02:55:05;;;;;;;62.80;34.28;;;7.90;96.90;;;;;;5035052;28;20041;-49
2022/02/19 02:57:31;;;;;;;58.60;31.92;;;8.10;96.70;;;;;;5035178;28;20102;-48
2022/02/19 02:59:57;;;;;;;54.00;29.88;;;8.20;96.80;;;;;;5053568;28;20025;-48
2022/02/19 03:02:23;;;;;;;51.55;27.55;;;8.10;96.80;;;;;;5051827;28;20037;-51
2022/02/19 03:04:49;;;;;;;45.47;25.58;;;8.30;96.80;;;;;;5053446;28;20025;-50
2022/02/19 03:07:15;;;;;;;37.58;21.20;;;8.30;96.50;;;;;;5068368;28;20037;-51
2022/02/19 03:09:40;;;;;;;22.88;14.57;;;8.40;96.60;;;;;;5053472;28;20388;-50
2022/02/19 03:12:07;;;;;;;31.95;17.10;;;8.40;96.60;;;;;;5051585;28;20091;-50
2022/02/19 03:14:32;;;;;;;28.98;17.70;;;8.30;96.60;;;;;;5018719;28;20082;-50
2022/02/19 03:16:58;;;;;;;28.17;18.50;;;8.30;96.60;;;;;;5053329;28;20473;-50
2022/02/19 03:19:24;;;;;;;33.70;19.42;;;8.30;96.90;;;;;;5053271;28;20036;-52
2022/02/19 03:21:50;;;;;;;41.55;21.00;;;8.20;96.80;;;;;;5053567;28;20143;-49
2022/02/19 03:24:15;;;;;;;37.20;21.23;;;8.10;96.50;;;;;;5067965;28;20055;-51
2022/02/19 03:26:41;;;;;;;38.60;21.92;;;8.10;97.00;;;;;;5053304;28;20055;-51
2022/02/19 03:29:07;;;;;;;37.22;21.55;;;8.20;96.90;;;;;;5068150;28;20391;-52
2022/02/19 03:31:33;;;;;;;38.75;18.85;;;8.10;96.60;;;;;;5069874;28;20512;-48
2022/02/19 03:33:58;;;;;;;41.53;26.85;;;7.80;96.80;;;;;;5057257;28;20045;-50
2022/02/19 03:36:24;;;;;;;44.80;21.55;;;7.50;97.30;;;;;;5038845;28;20041;-49
2022/02/19 03:38:50;;;;;;;26.88;15.55;;;7.20;97.90;;;;;;5057408;28;20115;-51
2022/02/19 03:41:16;;;;;;;79.82;46.33;;;6.70;99.40;;;;;;5057253;28;20079;-50
2022/02/19 03:43:41;;;;;;;24.25;12.55;;;6.70;99.80;;;;;;5057304;28;20031;-51
2022/02/19 03:46:07;;;;;;;38.28;18.63;;;6.30;99.90;;;;;;5057314;28;20108;-49
2022/02/19 03:48:33;;;;;;;44.47;19.98;;;6.30;99.90;;;;;;5055474;28;20036;-51
2022/02/19 03:50:59;;;;;;;33.88;17.13;;;6.30;99.90;;;;;;5055397;28;20427;-52
2022/02/19 03:53:24;;;;;;;39.90;19.70;;;6.30;99.90;;;;;;5038667;28;20472;-49
2022/02/19 03:55:50;;;;;;;56.20;30.88;;;6.60;99.90;;;;;;5056992;28;20484;-52
2022/02/19 03:58:16;;;;;;;58.38;33.30;;;6.70;99.90;;;;;;5056884;28;20083;-50
2022/02/19 04:00:41;;;;;;;62.72;34.35;;;6.90;99.90;;;;;;5072403;28;20068;-50
2022/02/19 04:03:09;;;;;;;40.70;20.83;;;7.10;99.90;;;;;;5040155;28;20044;-51
2022/02/19 04:05:35;;;;;;;37.03;17.50;;;7.20;99.90;;;;;;5056983;28;20044;-49
2022/02/19 04:08:01;;;;;;;26.25;14.88;;;7.20;99.90;;;;;;5056814;28;20025;-52
2022/02/19 04:10:27;;;;;;;27.48;14.73;;;7.30;99.40;;;;;;5038305;28;20599;-51
2022/02/19 04:12:53;;;;;;;29.63;14.50;;;7.30;99.60;;;;;;5022144;28;20045;-53
2022/02/19 04:15:19;;;;;;;27.50;15.52;;;7.40;99.40;;;;;;4991542;28;20044;-50
2022/02/19 04:17:44;;;;;;;30.52;16.20;;;7.50;99.10;;;;;;5074543;28;20032;-47
2022/02/19 04:20:10;;;;;;;28.63;16.83;;;7.50;99.00;;;;;;5074485;28;20546;-48
2022/02/19 04:22:39;;;;;;;26.63;15.95;;;7.50;99.00;;;;;;5074416;28;20025;-51
2022/02/19 04:25:05;;;;;;;28.98;15.20;;;7.50;98.90;;;;;;5025399;28;20036;-52
2022/02/19 04:27:30;;;;;;;28.63;17.20;;;7.50;99.00;;;;;;4991944;28;20114;-49
2022/02/19 04:29:56;;;;;;;30.92;17.67;;;7.60;98.80;;;;;;5074256;28;20116;-52
2022/02/19 04:32:22;;;;;;;38.13;18.95;;;7.60;98.80;;;;;;5024619;28;20385;-51
2022/02/19 04:34:48;;;;;;;33.17;19.23;;;7.40;99.40;;;;;;5041065;28;20032;-48
2022/02/19 04:37:14;;;;;;;36.15;18.90;;;7.30;99.90;;;;;;5073966;28;20037;-47
2022/02/19 04:39:40;;;;;;;29.30;17.23;;;7.30;99.60;;;;;;5041168;28;20040;-53
2022/02/19 04:42:06;;;;;;;31.98;18.38;;;7.40;99.60;;;;;;5074118;28;20120;-52
2022/02/19 04:44:34;;;;;;;31.42;16.88;;;7.50;99.20;;;;;;5073480;28;20029;-49
2022/02/19 04:46:59;;;;;;;37.58;18.55;;;7.30;99.60;;;;;;5021857;28;20067;-51
2022/02/19 04:49:25;;;;;;;29.80;16.70;;;7.30;99.60;;;;;;5070883;28;20068;-49
2022/02/19 04:51:51;;;;;;;31.35;18.15;;;7.40;99.50;;;;;;5056047;28;20108;-52
2022/02/19 04:54:17;;;;;;;31.70;15.38;;;7.40;99.40;;;;;;5055957;28;20025;-54
2022/02/19 04:56:43;;;;;;;22.23;13.80;;;7.40;99.20;;;;;;5055881;28;20128;-50
2022/02/19 04:59:08;;;;;;;19.55;13.02;;;7.50;99.20;;;;;;5055837;28;20059;-50
2022/02/19 05:01:34;;;;;;;24.98;15.38;;;7.50;99.00;;;;;;5070628;28;20481;-50
2022/02/19 05:04:00;;;;;;;16.73;11.40;;;7.50;99.10;;;;;;5072431;28;20111;-52
2022/02/19 05:06:25;;;;;;;17.48;9.35;;;7.40;99.10;;;;;;5075778;28;20459;-49
2022/02/19 05:08:51;;;;;;;19.48;9.45;;;7.50;99.10;;;;;;5057318;28;20033;-50
2022/02/19 05:11:17;;;;;;;15.85;9.27;;;7.50;99.00;;;;;;5040444;28;20081;-50
2022/02/19 05:13:43;;;;;;;15.85;9.02;;;7.50;99.10;;;;;;5075496;28;20124;-51
2022/02/19 05:16:09;;;;;;;19.77;9.85;;;7.40;99.00;;;;;;5075532;28;20510;-52
2022/02/19 05:18:34;;;;;;;20.30;8.13;;;7.50;99.00;;;;;;5075732;28;20051;-51
2022/02/19 05:21:00;;;;;;;17.38;7.53;;;7.60;98.80;;;;;;5057050;28;20044;-51
2022/02/19 05:23:26;;;;;;;14.93;8.15;;;7.40;99.10;;;;;;5075188;28;20111;-52
2022/02/19 05:25:52;;;;;;;18.50;8.07;;;7.00;99.80;;;;;;5075071;28;20129;-52
2022/02/19 05:28:17;;;;;;;26.13;20.30;;;7.00;99.90;;;;;;5075318;28;20040;-51
2022/02/19 05:30:43;;;;;;;18.92;10.60;;;7.20;99.70;;;;;;5056914;28;20036;-49
2022/02/19 05:33:09;;;;;;;25.83;13.65;;;7.30;99.70;;;;;;5075281;28;20028;-49
2022/02/19 05:35:35;;;;;;;21.08;11.63;;;7.40;99.70;;;;;;5075168;28;20468;-51
2022/02/19 05:38:01;;;;;;;22.02;10.50;;;7.40;99.50;;;;;;5076334;28;20055;-51
2022/02/19 05:40:26;;;;;;;22.90;10.30;;;7.50;99.50;;;;;;5040010;28;20448;-52
2022/02/19 05:42:52;;;;;;;21.80;11.45;;;7.60;99.30;;;;;;5072902;28;20109;-52
2022/02/19 05:45:18;;;;;;;26.63;11.70;;;7.70;99.20;;;;;;5079729;28;20097;-51
2022/02/19 05:47:44;;;;;;;22.38;11.35;;;7.80;99.10;;;;;;5046123;28;20071;-49
2022/02/19 05:50:11;;;;;;;22.48;12.75;;;7.70;99.10;;;;;;5095115;28;20059;-49
2022/02/19 05:52:37;;;;;;;26.92;13.18;;;7.90;99.00;;;;;;5092798;28;20118;-49
2022/02/19 05:55:03;;;;;;;27.25;13.57;;;7.90;98.90;;;;;;5072113;28;20131;-47
2022/02/19 05:57:29;;;;;;;21.20;12.65;;;8.00;99.00;;;;;;5057361;28;20033;-48
2022/02/19 05:59:55;;;;;;;21.23;12.52;;;7.90;99.00;;;;;;5073959;28;20077;-50
2022/02/19 06:02:21;;;;;;;20.23;12.90;;;8.00;99.00;;;;;;5054027;28;20060;-51
2022/02/19 06:04:47;;;;;;;23.88;11.82;;;8.10;98.90;;;;;;5020353;28;20032;-52
2022/02/19 06:07:12;;;;;;;30.77;17.60;;;8.10;99.10;;;;;;5073687;28;20039;-51
2022/02/19 06:09:38;;;;;;;21.15;13.30;;;8.20;99.00;;;;;;5074128;28;20531;-53
2022/02/19 06:12:04;;;;;;;269.88;242.82;;;8.50;98.90;;;;;;5055040;28;20041;-51
2022/02/19 06:14:30;;;;;;;31.92;19.27;;;10.00;98.40;;;;;;5060262;28;20127;-48
2022/02/19 06:16:56;;;;;;;31.20;19.23;;;10.60;97.00;;;;;;5062740;28;20116;-49
2022/02/19 06:19:23;;;;;;;44.55;24.80;;;10.90;96.40;;;;;;5062950;28;20021;-51
2022/02/19 06:21:49;;;;;;;68.35;39.75;;;;;;;;;;5062590;28;20028;-48
2022/02/19 06:24:15;;;;;;;31.33;20.33;;;14.10;99.90;;;;;;5070530;28;20063;-49
2022/02/19 06:26:41;;;;;;;56.03;33.22;;;;;;;;;;5083873;28;20056;-49
2022/02/19 06:29:07;;;;;;;45.45;27.75;;;15.80;91.50;;;;;;5052968;28;20093;-52
2022/02/19 06:31:32;;;;;;;112.55;57.90;;;15.50;90.50;;;;;;5067736;28;20024;-55
2022/02/19 06:33:58;;;;;;;66.55;35.78;;;15.50;88.90;;;;;;5061501;28;20040;-51
2022/02/19 06:36:24;;;;;;;89.03;50.05;;;15.10;88.10;;;;;;5094197;28;20089;-49
2022/02/19 06:38:50;;;;;;;97.90;50.95;;;14.40;88.40;;;;;;5075540;28;20440;-48
2022/02/19 06:41:16;;;;;;;84.45;43.03;;;13.90;89.60;;;;;;5074025;28;20046;-47
2022/02/19 06:43:42;;;;;;;50.63;26.20;;;13.50;90.10;;;;;;5094284;28;20024;-47
2022/02/19 06:46:07;;;;;;;116.60;57.97;;;13.70;90.60;;;;;;5094036;28;20348;-47
2022/02/19 06:48:33;;;;;;;97.10;54.85;;;15.20;90.80;;;;;;5093965;28;20030;-45
2022/02/19 06:50:59;;;;;;;110.47;55.05;;;16.60;89.20;;;;;;5094224;28;20047;-44
2022/02/19 06:53:26;;;;;;;92.35;42.33;;;17.70;86.60;;;;;;5041530;28;20031;-46
2022/02/19 06:55:52;;;;;;;94.10;44.70;;;;;;;;;;5094067;28;20115;-46
2022/02/19 06:58:18;;;;;;;84.88;43.35;;;20.50;82.10;;;;;;5081977;28;20029;-46
2022/02/19 07:00:44;;;;;;;55.15;29.77;;;;;;;;;;5054741;28;20036;-46
2022/02/19 07:03:10;;;;;;;85.55;76.05;;;;;;;;;;5038300;28;20480;-47
2022/02/19 07:05:36;;;;;;;26.98;17.02;;;23.80;74.90;;;;;;5054674;28;20063;-47
2022/02/19 07:08:02;;;;;;;26.27;16.83;;;24.10;72.30;;;;;;5038524;28;20441;-47
2022/02/19 07:10:28;;;;;;;27.45;16.95;;;24.40;72.00;;;;;;5073567;28;20042;-47
2022/02/19 07:12:55;;;;;;;42.45;25.70;;;24.00;70.40;;;;;;5054929;28;20487;-49
2022/02/19 07:15:20;;;;;;;33.05;21.23;;;23.50;70.90;;;;;;5073567;28;20045;-49
2022/02/19 07:17:51;;;;;;;21.35;15.90;;;23.70;70.90;;;;;;5054282;28;20036;-47
2022/02/19 07:20:20;;;;;;;26.42;14.48;;;23.50;70.50;;;;;;5070524;28;20108;-52
2022/02/19 07:22:47;;;;;;;19.90;11.95;;;;;;;;;;5089691;28;20039;-52
2022/02/19 07:25:13;;;;;;;20.92;11.77;;;25.70;76.70;;;;;;5076037;28;20048;-49
2022/02/19 07:27:41;;;;;;;17.40;10.25;;;;;;;;;;5072875;28;20051;-45
2022/02/19 07:30:08;;;;;;;16.25;10.15;;;;;;;;;;5051026;28;20044;-46
2022/02/19 07:32:35;;;;;;;17.83;10.02;;;27.80;94.30;;;;;;5052589;28;20043;-46
2022/02/19 07:35:02;;;;;;;53.47;36.08;;;28.10;64.70;;;;;;5071437;28;20052;-46
2022/02/19 07:37:28;;;;;;;54.72;29.50;;;28.20;64.50;;;;;;5071118;28;20182;-45
2022/02/19 07:39:54;;;;;;;23.40;12.60;;;28.20;64.00;;;;;;5071042;28;20531;-47
2022/02/19 07:42:20;;;;;;;28.13;16.50;;;28.50;62.80;;;;;;5071085;28;20118;-46
2022/02/19 07:44:45;;;;;;;42.33;30.17;;;28.20;64.10;;;;;;5070999;28;20067;-47
2022/02/19 07:47:12;;;;;;;27.23;16.40;;;;;;;;;;5037431;28;20174;-47
2022/02/19 08:00:35;;;;;;;18.40;8.90;;;32.20;60.20;;;;;;5077273;28;20047;-45
2022/02/19 08:03:00;;;;;;;13.93;8.95;;;32.60;58.70;;;;;;5074528;28;20047;-47
2022/02/19 08:05:26;;;;;;;14.07;8.55;;;32.60;58.60;;;;;;5022877;28;20042;-48
2022/02/19 08:07:52;;;;;;;12.00;8.02;;;32.60;58.30;;;;;;5093188;28;20364;-49
2022/02/19 08:10:17;;;;;;;12.23;9.23;;;32.30;59.30;;;;;;5093121;28;20036;-48
2022/02/19 08:12:44;;;;;;;12.20;8.48;;;;;;;;;;5093072;28;20028;-47
2022/02/19 08:15:10;;;;;;;17.40;9.50;;;;;;;;;;5074180;28;20040;-50
2022/02/19 08:17:36;;;;;;;12.52;9.02;;;31.00;58.50;;;;;;5093300;28;20418;-49
2022/02/19 08:20:03;;;;;;;11.18;9.10;;;30.70;59.30;;;;;;5097035;28;20038;-48
2022/02/19 08:22:29;;;;;;;13.55;10.20;;;30.60;59.00;;;;;;5061285;28;20047;-47
2022/02/19 08:24:54;;;;;;;15.02;9.88;;;30.40;59.90;;;;;;5096692;28;20040;-49
2022/02/19 08:27:20;;;;;;;16.27;11.10;;;30.60;60.00;;;;;;5096684;28;20043;-47
2022/02/19 08:29:46;;;;;;;21.92;10.98;;;30.60;59.50;;;;;;5093805;28;20120;-47
2022/02/19 08:32:12;;;;;;;14.98;10.00;;;30.00;59.70;;;;;;5110138;28;20050;-49
2022/02/19 08:34:37;;;;;;;11.52;8.73;;;29.70;59.00;;;;;;5074106;28;20491;-48
2022/02/19 08:37:03;;;;;;;14.93;12.10;;;29.60;59.60;;;;;;5115177;28;20039;-47
2022/02/19 08:39:29;;;;;;;16.67;10.48;;;30.40;60.40;;;;;;5115453;28;20063;-49
2022/02/19 08:41:55;;;;;;;18.38;9.90;;;30.30;60.20;;;;;;5039587;28;20136;-50
2022/02/19 08:44:21;;;;;;;13.45;9.98;;;30.50;59.90;;;;;;5116485;28;20055;-49
2022/02/19 08:46:47;;;;;;;14.52;10.48;;;30.80;59.50;;;;;;5106965;28;20063;-47
2022/02/19 08:49:12;;;;;;;12.82;9.15;;;30.70;59.70;;;;;;5090893;28;20047;-49
2022/02/19 08:51:38;;;;;;;13.43;9.50;;;30.20;59.20;;;;;;5084364;28;20040;-49
2022/02/19 08:54:04;;;;;;;23.48;13.57;;;29.60;59.60;;;;;;5115394;28;20055;-48
2022/02/19 08:56:30;;;;;;;20.70;13.13;;;29.90;60.40;;;;;;5115657;28;20039;-48
2022/02/19 08:58:55;;;;;;;15.32;10.50;;;29.60;60.00;;;;;;5068571;28;20050;-48
2022/02/19 09:01:21;;;;;;;15.13;10.68;;;30.10;60.70;;;;;;5115479;28;20033;-46
2022/02/19 09:03:47;;;;;;;16.55;11.32;;;30.40;60.00;;;;;;5115161;28;20038;-49
2022/02/19 09:06:13;;;;;;;16.65;11.63;;;30.30;60.50;;;;;;5115966;28;20028;-48
2022/02/19 09:08:39;;;;;;;20.33;12.30;;;30.50;62.20;;;;;;5115031;28;20560;-49
2022/02/19 09:11:05;;;;;;;19.90;12.27;;;30.80;60.90;;;;;;5113892;28;20660;-49
2022/02/19 09:13:31;;;;;;;23.27;15.45;;;30.30;60.60;;;;;;5108589;28;20114;-47
2022/02/19 09:15:57;;;;;;;23.98;15.90;;;30.20;60.80;;;;;;5114275;28;20418;-49
2022/02/19 09:18:23;;;;;;;26.20;18.25;;;30.60;61.60;;;;;;5113815;28;20523;-47
2022/02/19 09:20:48;;;;;;;14.45;9.80;;;30.70;61.40;;;;;;5115733;28;20027;-48
2022/02/19 09:23:14;;;;;;;14.52;8.52;;;30.60;61.40;;;;;;5112646;28;20073;-48
2022/02/19 09:25:40;;;;;;;12.27;8.63;;;30.80;61.20;;;;;;5115054;28;20638;-48
2022/02/19 09:28:06;;;;;;;22.00;13.98;;;30.70;61.00;;;;;;5098543;28;20387;-49
2022/02/19 09:30:31;;;;;;;17.02;12.35;;;30.30;59.40;;;;;;5115659;28;20039;-49
2022/02/19 09:33:00;;;;;;;15.38;8.07;;;29.70;60.30;;;;;;5114532;28;20508;-49
2022/02/19 09:35:26;;;;;;;13.10;8.35;;;28.90;60.70;;;;;;5114857;28;20188;-47
2022/02/19 09:37:52;;;;;;;15.48;8.82;;;28.20;60.40;;;;;;5113667;28;20038;-47
2022/02/19 09:40:17;;;;;;;24.45;9.68;;;27.70;60.80;;;;;;5114395;28;20379;-49
2022/02/19 09:42:44;;;;;;;11.30;7.63;;;27.20;62.00;;;;;;5103602;28;20062;-48
2022/02/19 09:45:11;;;;;;;11.63;6.72;;;26.70;62.80;;;;;;5111539;28;20035;-48
2022/02/19 09:47:39;;;;;;;15.88;6.90;;;26.30;65.00;;;;;;5115289;28;20031;-49
2022/02/19 09:50:06;;;;;;;11.15;6.30;;;26.00;64.20;;;;;;5070283;28;20052;-47
2022/02/19 09:52:32;;;;;;;11.98;6.97;;;25.70;65.20;;;;;;5068677;28;20051;-47
2022/02/19 09:54:59;;;;;;;8.73;5.38;;;25.30;65.80;;;;;;5113295;28;20035;-48
2022/02/19 09:57:25;;;;;;;10.13;5.43;;;25.20;65.30;;;;;;5107400;28;20418;-49
2022/02/19 09:59:51;;;;;;;8.90;5.63;;;25.00;65.80;;;;;;5112316;28;20035;-48
2022/02/19 10:02:27;;;;;;;8.15;5.72;;;24.80;65.30;;;;;;5114161;28;20080;-50
2022/02/19 10:04:53;;;;;;;7.90;6.50;;;24.80;66.50;;;;;;5113996;28;20047;-47
2022/02/19 10:07:21;;;;;;;26.05;7.57;;;24.70;66.70;;;;;;5114165;28;20023;-48
2022/02/19 10:09:49;;;;;;;11.43;6.85;;;25.10;66.60;;;;;;5113927;28;20111;-48
2022/02/19 10:12:16;;;;;;;10.60;5.63;;;25.00;65.70;;;;;;5113998;28;20035;-47
2022/02/19 10:14:44;;;;;;;16.80;6.47;;;24.90;66.30;;;;;;5113663;28;20031;-48
2022/02/19 10:17:21;;;;;;;6.18;4.80;;;24.80;66.00;;;;;;5105872;28;20031;-49
2022/02/19 10:20:07;;;;;;;6.60;4.82;;;24.60;65.30;;;;;;5105606;28;20030;-49
2022/02/19 10:22:42;;;;;;;17.60;10.20;;;24.40;65.60;;;;;;5113399;28;20023;-48
2022/02/19 10:25:14;;;;;;;8.98;5.32;;;24.60;66.10;;;;;;5113646;28;20047;-48
2022/02/19 10:27:44;;;;;;;7.13;4.68;;;24.80;66.70;;;;;;5113738;28;20030;-48
2022/02/19 10:30:16;;;;;;;5.55;3.47;;;24.80;66.10;;;;;;5099070;28;20463;-47
2022/02/19 10:33:10;;;;;;;6.45;3.97;;;24.80;65.00;;;;;;5113714;28;20070;-45
2022/02/19 10:35:41;;;;;;;6.50;4.10;;;24.90;65.40;;;;;;5103383;28;20054;-46
2022/02/19 10:38:14;;;;;;;6.90;4.65;;;25.10;65.40;;;;;;5113415;28;20467;-46
2022/02/19 10:40:46;;;;;;;5.53;4.93;;;25.60;65.30;;;;;;5112870;28;20035;-47
2022/02/19 10:43:22;;;;;;;7.70;5.10;;;26.50;65.20;;;;;;5113181;28;20024;-44
2022/02/19 10:46:04;;;;;;;7.68;4.05;;;26.70;65.00;;;;;;5112681;28;20043;-47
2022/02/19 10:48:33;;;;;;;6.07;5.13;;;26.80;64.40;;;;;;5106978;28;20039;-47
2022/02/19 10:51:09;;;;;;;9.02;5.40;;;;;;;;;;5112398;28;20118;-46
2022/02/19 10:53:36;;;;;;;10.98;6.88;;;27.80;96.10;;;;;;5090625;28;20044;-46
2022/02/19 10:56:11;;;;;;;20.17;12.23;;;28.00;78.60;;;;;;5112075;28;20180;-48
2022/02/19 10:58:56;;;;;;;18.90;11.27;;;27.40;69.30;;;;;;5113229;28;20398;-47
2022/02/19 11:01:21;;;;;;;17.40;11.05;;;26.40;65.60;;;;;;5111459;28;20036;-46
2022/02/19 11:03:48;;;;;;;17.05;12.27;;;26.60;65.10;;;;;;5068058;28;20048;-47
2022/02/19 11:06:15;;;;;;;16.65;12.00;;;25.50;65.80;;;;;;5112229;28;20046;-47
2022/02/19 11:08:42;;;;;;;20.15;11.98;;;24.60;66.70;;;;;;5113019;28;20035;-47
2022/02/19 11:11:10;;;;;;;11.93;8.18;;;23.60;67.40;;;;;;5076805;28;20044;-47
2022/02/19 11:13:37;;;;;;;15.02;8.55;;;22.40;68.70;;;;;;5109697;28;20068;-45
2022/02/19 11:16:06;;;;;;;13.77;10.20;;;22.10;71.00;;;;;;5110418;28;20439;-46
2022/02/19 11:18:34;;;;;;;13.27;9.82;;;22.30;71.10;;;;;;5112452;28;20024;-47
2022/02/19 11:21:05;;;;;;;13.35;10.50;;;22.60;71.00;;;;;;5112827;28;20063;-47
2022/02/19 11:23:33;;;;;;;10.45;7.00;;;23.00;69.40;;;;;;5112850;28;20043;-46
2022/02/19 11:26:00;;;;;;;14.82;9.32;;;22.70;69.60;;;;;;5110697;28;20486;-47
2022/02/19 11:28:36;;;;;;;12.70;8.05;;;22.60;70.00;;;;;;5111201;28;20024;-45
2022/02/19 11:31:05;;;;;;;16.73;9.40;;;21.80;70.40;;;;;;5104488;28;20043;-45
2022/02/19 11:33:33;;;;;;;19.27;11.82;;;21.70;71.00;;;;;;5113318;28;20110;-45
2022/02/19 11:36:06;;;;;;;21.40;11.82;;;21.50;71.90;;;;;;5112924;28;20031;-47
2022/02/19 11:38:35;;;;;;;16.05;11.80;;;22.00;71.90;;;;;;5112756;28;20071;-46
2022/02/19 11:41:19;;;;;;;14.15;10.55;;;22.50;71.40;;;;;;5074529;28;20043;-45
2022/02/19 11:43:47;;;;;;;21.98;15.15;;;23.10;69.90;;;;;;5111339;28;20114;-46
2022/02/19 11:46:13;;;;;;;18.85;10.13;;;22.70;71.10;;;;;;5109014;28;20107;-47
2022/02/19 11:48:41;;;;;;;12.70;9.80;;;22.30;70.60;;;;;;5112423;28;20097;-46
2022/02/19 11:51:22;;;;;;;11.73;7.35;;;22.70;71.50;;;;;;5110591;28;20031;-46
2022/02/19 11:54:03;;;;;;;14.07;8.57;;;23.00;70.20;;;;;;5115277;28;20489;-45
2022/02/19 11:56:32;;;;;;;18.70;7.80;;;22.70;70.00;;;;;;5116377;28;20043;-45
2022/02/19 11:59:01;;;;;;;10.32;7.05;;;22.60;70.60;;;;;;5056948;28;20102;-45
2022/02/19 12:01:28;;;;;;;9.15;7.07;;;22.30;70.40;;;;;;5067658;28;20124;-47
2022/02/19 12:04:19;;;;;;;7.50;5.90;;;22.80;70.60;;;;;;5068418;28;20527;-48
2022/02/19 12:07:05;;;;;;;11.32;6.93;;;23.00;70.60;;;;;;5056389;28;20392;-45
2022/02/19 12:09:32;;;;;;;10.13;6.60;;;22.80;70.50;;;;;;5050200;28;20045;-46
2022/02/19 12:12:05;;;;;;;14.63;7.90;;;22.80;70.50;;;;;;5062326;28;20036;-47
2022/02/19 12:14:46;;;;;;;9.60;6.93;;;23.30;71.10;;;;;;5053931;28;20045;-46
2022/02/19 12:17:16;;;;;;;10.15;6.72;;;23.50;70.60;;;;;;5057916;28;20055;-47
2022/02/19 12:20:03;;;;;;;15.57;7.05;;;23.70;70.20;;;;;;5062974;28;20131;-46
2022/02/19 12:22:29;;;;;;;10.15;6.60;;;23.90;73.40;;;;;;5053518;28;20194;-45
2022/02/19 12:24:55;;;;;;;9.38;6.40;;;23.80;81.20;;;;;;5048942;28;20053;-47
2022/02/19 12:27:21;;;;;;;10.23;7.03;;;23.40;71.30;;;;;;5056104;28;20041;-46
2022/02/19 12:29:51;;;;;;;10.77;6.38;;;22.90;71.50;;;;;;5072319;28;20042;-44
2022/02/19 12:32:22;;;;;;;8.65;6.13;;;22.30;72.20;;;;;;5115669;28;20038;-47
2022/02/19 12:34:56;;;;;;;10.73;7.32;;;22.20;72.80;;;;;;5115715;28;20040;-45
2022/02/19 12:37:23;;;;;;;15.95;8.40;;;22.20;73.00;;;;;;5108218;28;20088;-46
2022/02/19 12:39:50;;;;;;;10.60;5.28;;;22.10;73.30;;;;;;5107289;28;20415;-45
2022/02/19 12:42:21;;;;;;;6.30;3.63;;;20.60;73.10;;;;;;5115689;28;20032;-47
2022/02/19 12:44:57;;;;;;;6.75;4.60;;;19.80;74.50;;;;;;5115898;28;20036;-49
2022/02/19 12:47:23;;;;;;;7.53;4.45;;;19.70;75.20;;;;;;5109138;28;20046;-46
2022/02/19 12:49:49;;;;;;;8.55;4.53;;;20.00;74.60;;;;;;5107334;28;20032;-51
2022/02/19 12:52:15;;;;;;;13.63;5.45;;;19.90;74.80;;;;;;5015952;28;20412;-47